createdAt,value
2023-06-18T00:01:56.317Z,8.3
2023-06-18T00:12:02.355Z,8.3
2023-06-18T00:22:08.418Z,8.3
2023-06-18T00:32:14.455Z,8
2023-06-18T00:42:20.490Z,8.5
2023-06-18T00:52:26.547Z,8.6
2023-06-18T01:02:32.591Z,8.7
2023-06-18T01:12:38.635Z,9.3
2023-06-18T01:22:44.673Z,9.2
2023-06-18T01:32:50.732Z,9.7
2023-06-18T01:42:56.782Z,10.2
2023-06-18T01:53:02.803Z,10.7
2023-06-18T02:03:08.849Z,11.2
2023-06-18T02:13:13.920Z,11.1
2023-06-18T02:23:19.965Z,12.4
2023-06-18T02:33:26.013Z,11.2
2023-06-18T02:43:32.052Z,13.2
2023-06-18T02:53:38.110Z,13.5
2023-06-18T03:03:44.142Z,12.9
2023-06-18T03:13:50.205Z,14.1
2023-06-18T03:34:02.288Z,15.3
2023-06-18T03:44:08.337Z,15.4
2023-06-18T03:54:14.380Z,15.8
2023-06-18T04:04:20.422Z,15.3
2023-06-18T04:14:26.476Z,15.7
2023-06-18T04:24:31.530Z,14.1
2023-06-18T04:34:37.587Z,15.7
2023-06-18T04:44:43.612Z,17.8
2023-06-18T04:54:49.672Z,17.6
2023-06-18T05:04:55.720Z,18.3
2023-06-18T05:15:01.771Z,17.7
2023-06-18T05:25:07.800Z,17.5
2023-06-18T05:35:13.843Z,18.1
2023-06-18T05:45:19.893Z,17.6
2023-06-18T05:55:25.946Z,17.4
2023-06-18T06:05:31.985Z,17.4
2023-06-18T06:15:38.025Z,17
2023-06-18T06:25:44.078Z,16.4
2023-06-18T06:35:49.141Z,16.3
2023-06-18T06:45:55.209Z,13.9
2023-06-18T06:56:01.225Z,15.6
2023-06-18T07:06:07.285Z,13.8
2023-06-18T07:16:12.329Z,12.1
2023-06-18T07:26:17.401Z,12.4
2023-06-18T07:36:23.445Z,11.4
2023-06-18T07:46:29.495Z,10.2
2023-06-18T07:56:35.564Z,10.6
2023-06-18T08:06:41.592Z,9.2
2023-06-18T08:16:47.631Z,9.4
2023-06-18T08:26:53.686Z,9
2023-06-18T08:36:59.718Z,8.5
2023-06-18T08:47:05.783Z,8.5
2023-06-18T08:57:11.819Z,7.6
2023-06-18T09:07:17.868Z,7.4
2023-06-18T09:17:23.899Z,7.3
2023-06-18T09:27:29.945Z,7.8
2023-06-18T09:37:35.015Z,6.9
2023-06-18T09:47:41.072Z,7.1
2023-06-18T09:57:47.128Z,7.4
2023-06-18T10:07:53.162Z,6.6
2023-06-18T10:17:59.201Z,6.5
2023-06-18T10:28:05.249Z,5.7
2023-06-18T10:38:11.281Z,6.4
2023-06-18T10:48:17.358Z,5.8
2023-06-18T10:58:22.421Z,5.5
2023-06-18T11:08:27.483Z,6.2
2023-06-18T11:18:32.558Z,5.4
2023-06-18T11:28:38.694Z,5.8
2023-06-18T11:38:44.631Z,5.6
2023-06-18T11:48:50.697Z,5.6
2023-06-18T11:58:55.757Z,5.9
2023-06-18T12:09:01.824Z,5.4
2023-06-18T12:19:07.880Z,5.6
2023-06-18T12:29:13.904Z,5.4
2023-06-18T12:39:19.953Z,5.5
2023-06-18T12:49:25.996Z,5.4
2023-06-18T12:59:32.082Z,5.5
2023-06-18T13:09:38.093Z,5.4
2023-06-18T13:19:44.135Z,5.7
2023-06-18T13:29:50.180Z,5.3
2023-06-18T13:39:56.234Z,6.1
2023-06-18T13:50:02.273Z,5.3
2023-06-18T14:00:08.327Z,5.1
2023-06-18T14:10:13.432Z,5.3
2023-06-18T14:20:19.433Z,5.2
2023-06-18T14:30:25.498Z,5.6
2023-06-18T14:40:30.563Z,5.6
2023-06-18T14:50:35.620Z,5.5
2023-06-18T15:00:41.697Z,5.2
2023-06-18T15:20:53.761Z,5
2023-06-18T15:30:59.812Z,5.3
2023-06-18T15:41:05.860Z,5
2023-06-18T15:51:11.903Z,5.3
2023-06-18T16:01:17.950Z,5.6
2023-06-18T16:11:23.987Z,5.6
2023-06-18T16:21:30.039Z,5.8
2023-06-18T16:31:36.101Z,5.7
2023-06-18T16:41:42.130Z,6
2023-06-18T16:51:48.187Z,6
2023-06-18T17:01:54.237Z,6.1
2023-06-18T17:12:00.289Z,6.6
2023-06-18T17:22:05.354Z,6.8
2023-06-18T17:32:11.385Z,6.5
2023-06-18T17:42:17.449Z,6.7
2023-06-18T17:52:23.482Z,7.2
2023-06-18T18:02:29.534Z,7
2023-06-18T18:12:35.580Z,6.6
2023-06-18T18:22:40.657Z,6.9
2023-06-18T18:32:45.730Z,6.7
2023-06-18T18:42:50.778Z,6.8
2023-06-18T18:52:56.821Z,6.4
2023-06-18T19:03:02.877Z,6.7
2023-06-18T19:13:08.908Z,6.6
2023-06-18T19:23:14.968Z,6.8
2023-06-18T19:33:21.010Z,7.3
2023-06-18T19:43:27.082Z,7.6
2023-06-18T19:53:33.113Z,7.3
2023-06-18T20:03:39.161Z,7.3
2023-06-18T20:13:45.200Z,7.4
2023-06-18T20:23:51.259Z,7.8
2023-06-18T20:33:57.285Z,7.6
2023-06-18T20:44:03.338Z,7.6
2023-06-18T20:54:09.438Z,7.8
2023-06-18T21:04:14.441Z,7.4
2023-06-18T21:14:20.492Z,7.7
2023-06-18T21:24:26.538Z,8.1
2023-06-18T21:34:32.587Z,7.5
2023-06-18T21:44:38.623Z,7.7
2023-06-18T21:54:43.688Z,7.3
2023-06-18T22:04:48.759Z,7.4
2023-06-18T22:14:54.807Z,7.4
2023-06-18T22:25:00.855Z,7.9
2023-06-18T22:35:06.907Z,7.5
2023-06-18T22:45:12.950Z,7.9
2023-06-18T22:55:19.036Z,7.6
2023-06-18T23:05:25.051Z,7.6
2023-06-18T23:15:31.100Z,7.5
2023-06-18T23:25:37.131Z,7.8
2023-06-18T23:35:43.180Z,7.6
2023-06-18T23:45:49.209Z,8
2023-06-18T23:55:55.257Z,7.7
